Justice, Illinois
Current Conditions -  °F | °C
As of 7:53 AM on Thursday 30 Oct 2014 (Local Time) from KMDW Reporting Station
Broken Clouds Broken Clouds  
Wind Chill: 39°   Ceiling: 25000
Heat Index: 39°   Visibility: 10mi
Dew Point: 34°   Wind: 3mph
Humidity: 82%   Direction: 180°S
Pressure: 30.14"   Gusts: NA
Location:  41.75°N, 87.84°W
Report Text: KMDW 301253Z 18003KT 10SM FEW170 BKN250 04/01 A3014 RMK AO2 SLP211 T00390011
Loading
Personal Weather Stations






























Interactive Weather Map
Tropical Storm Tracking
New forecast layout! Learn more

10-Day Weather Forecast

Advertisements
Track Severe Weather on mobile